Time;durP1;ratioP1;P1;durP2;ratioP2;P2;SDS_P1;SDS_P2;PMS_P1;PMS_P2;Temp;Humidity;BMP_temperature;BMP_pressure;BME280_temperature;BME280_humidity;BME280_pressure;Samples;Min_cycle;Max_cycle;Signal;HPM_P1;HPM_P2
2023/06/15 00:00:46;;;;;;;3.90;3.60;;;22.70;43.20;;;;;;5056001;28;20309;-78
2023/06/15 00:03:14;;;;;;;4.28;3.88;;;22.70;43.10;;;;;;5056212;28;20229;-78
2023/06/15 00:05:41;;;;;;;3.80;3.35;;;22.70;43.40;;;;;;5038956;28;20210;-78
2023/06/15 00:08:10;;;;;;;4.00;3.60;;;22.70;43.40;;;;;;5055716;28;20203;-78
2023/06/15 00:10:37;;;;;;;4.00;3.70;;;22.60;43.30;;;;;;5055412;28;20203;-80
2023/06/15 00:13:04;;;;;;;3.85;3.55;;;22.60;43.60;;;;;;5039142;28;20695;-80
2023/06/15 00:15:32;;;;;;;4.63;3.70;;;22.60;43.30;;;;;;5039238;28;20684;-80
2023/06/15 00:17:58;;;;;;;4.35;3.95;;;22.60;43.40;;;;;;5038938;28;20662;-80
2023/06/15 00:20:28;;;;;;;3.88;3.58;;;22.60;43.40;;;;;;5055486;28;20203;-80
2023/06/15 00:22:55;;;;;;;3.78;3.47;;;22.60;43.40;;;;;;5039124;28;20253;-79
2023/06/15 00:25:24;;;;;;;4.53;4.07;;;22.50;43.60;;;;;;5055456;28;20242;-79
2023/06/15 00:28:09;;;;;;;4.00;3.53;;;22.60;43.60;;;;;;5056575;28;20274;-79
2023/06/15 00:30:55;;;;;;;3.88;3.58;;;22.50;43.50;;;;;;5056594;28;20723;-78
2023/06/15 00:33:23;;;;;;;3.83;3.42;;;22.60;43.40;;;;;;5055776;28;20566;-78
2023/06/15 00:35:50;;;;;;;5.32;3.65;;;22.50;43.40;;;;;;5054940;28;20199;-78
2023/06/15 00:38:18;;;;;;;4.10;3.70;;;22.50;43.50;;;;;;5054803;28;20200;-78
2023/06/15 00:40:47;;;;;;;3.80;3.50;;;22.60;43.60;;;;;;5054554;28;20371;-78
2023/06/15 00:43:14;;;;;;;4.20;3.80;;;22.50;43.40;;;;;;5055659;28;20498;-78
2023/06/15 00:45:41;;;;;;;3.75;3.45;;;22.50;43.60;;;;;;5038562;28;20234;-78
2023/06/15 00:48:09;;;;;;;3.90;3.50;;;22.50;43.40;;;;;;5054430;28;20207;-78
2023/06/15 00:50:38;;;;;;;4.07;3.78;;;22.50;43.60;;;;;;5055973;28;20198;-78
2023/06/15 00:53:05;;;;;;;3.83;3.45;;;22.50;43.60;;;;;;5059483;28;20188;-78
2023/06/15 00:55:33;;;;;;;4.47;4.07;;;22.40;43.60;;;;;;5057934;28;20200;-78
2023/06/15 00:58:01;;;;;;;3.58;3.28;;;22.40;43.60;;;;;;5057406;28;20195;-78
2023/06/15 01:00:29;;;;;;;3.95;3.65;;;22.40;43.50;;;;;;5057630;28;20195;-78
2023/06/15 01:03:20;;;;;;;3.72;3.33;;;22.40;43.70;;;;;;5055855;28;20269;-78
2023/06/15 01:05:49;;;;;;;4.10;3.70;;;22.40;43.60;;;;;;5059243;28;20631;-79
2023/06/15 01:08:16;;;;;;;4.40;4.07;;;22.40;43.70;;;;;;5062213;28;20258;-79
2023/06/15 01:10:43;;;;;;;4.00;3.70;;;22.40;43.80;;;;;;5078963;28;20204;-78
2023/06/15 01:13:12;;;;;;;3.80;3.50;;;22.40;43.70;;;;;;5078726;28;20191;-78
2023/06/15 01:15:39;;;;;;;4.57;4.07;;;22.40;43.60;;;;;;5061359;28;20195;-79
2023/06/15 01:18:06;;;;;;;3.92;3.60;;;22.40;43.60;;;;;;5055695;28;20190;-79
2023/06/15 01:20:39;;;;;;;4.30;3.90;;;22.40;43.70;;;;;;5054198;28;20199;-79
2023/06/15 01:23:18;;;;;;;4.38;3.95;;;22.40;44.30;;;;;;5056597;28;20268;-79
2023/06/15 01:26:00;;;;;;;3.80;3.55;;;22.30;43.80;;;;;;5059614;28;20607;-79
2023/06/15 01:28:29;;;;;;;4.00;3.70;;;22.30;43.50;;;;;;5060994;28;20206;-80
2023/06/15 01:30:57;;;;;;;4.05;3.75;;;22.30;43.60;;;;;;5060444;28;20716;-80
2023/06/15 01:33:24;;;;;;;4.05;3.75;;;22.30;43.60;;;;;;5060627;28;20206;-79
2023/06/15 01:35:51;;;;;;;4.03;3.72;;;22.30;43.70;;;;;;5057480;28;20205;-80
2023/06/15 01:38:18;;;;;;;4.38;4.00;;;22.30;43.80;;;;;;5053999;28;20191;-80
2023/06/15 01:40:48;;;;;;;3.80;3.50;;;22.30;43.70;;;;;;5053965;28;20226;-80
2023/06/15 01:43:17;;;;;;;4.00;3.67;;;22.20;43.80;;;;;;5055262;28;20203;-80
2023/06/15 01:45:44;;;;;;;4.25;3.95;;;22.20;43.80;;;;;;5053573;28;20206;-80
2023/06/15 01:48:14;;;;;;;3.70;3.40;;;22.20;43.90;;;;;;5054822;28;20230;-78
2023/06/15 01:50:41;;;;;;;3.83;3.10;;;22.20;43.90;;;;;;5053710;28;20223;-78
2023/06/15 01:53:08;;;;;;;4.70;3.88;;;22.20;43.90;;;;;;5053582;28;20249;-78
2023/06/15 01:55:35;;;;;;;3.97;3.50;;;22.20;43.90;;;;;;5053763;28;20253;-78
2023/06/15 01:58:03;;;;;;;3.88;3.58;;;22.20;43.80;;;;;;5044495;28;20203;-78
2023/06/15 02:00:32;;;;;;;3.92;3.45;;;22.20;43.80;;;;;;5043989;28;20206;-78
2023/06/15 02:02:58;;;;;;;4.00;3.60;;;22.20;43.70;;;;;;5063575;28;20215;-78
2023/06/15 02:05:25;;;;;;;4.40;4.00;;;22.20;43.70;;;;;;5059057;28;20539;-79
2023/06/15 02:07:52;;;;;;;3.90;3.60;;;22.20;43.90;;;;;;5054704;28;20234;-79
2023/06/15 02:10:22;;;;;;;3.97;3.60;;;22.20;43.90;;;;;;5054407;28;20207;-79
2023/06/15 02:12:50;;;;;;;4.22;3.58;;;22.10;44.00;;;;;;5054832;28;20214;-77
2023/06/15 02:15:19;;;;;;;3.78;3.47;;;22.10;43.70;;;;;;5037208;28;20278;-77
2023/06/15 02:17:48;;;;;;;3.78;3.47;;;22.10;43.80;;;;;;5053203;28;20210;-77
2023/06/15 02:20:16;;;;;;;4.05;3.70;;;22.10;43.80;;;;;;5053333;28;20223;-77
2023/06/15 02:22:44;;;;;;;3.95;3.65;;;22.10;43.80;;;;;;5020023;28;20219;-77
2023/06/15 02:25:13;;;;;;;4.72;3.38;;;22.10;43.90;;;;;;5053385;28;20203;-77
2023/06/15 02:27:40;;;;;;;3.40;3.10;;;22.10;44.00;;;;;;5052890;28;20199;-77
2023/06/15 02:30:09;;;;;;;4.20;3.70;;;22.10;44.00;;;;;;5053254;28;20222;-77
2023/06/15 02:32:37;;;;;;;5.80;3.85;;;22.00;43.90;;;;;;5053317;28;20218;-77
2023/06/15 02:35:08;;;;;;;4.05;3.65;;;22.10;44.00;;;;;;5052831;28;20608;-77
2023/06/15 02:37:37;;;;;;;4.00;3.70;;;22.00;44.60;;;;;;5053840;28;20199;-77
2023/06/15 02:40:05;;;;;;;3.97;3.67;;;22.00;44.00;;;;;;5053975;28;20207;-77
2023/06/15 02:42:33;;;;;;;3.83;3.53;;;22.00;44.10;;;;;;5058917;28;20269;-79
2023/06/15 02:45:02;;;;;;;4.53;3.63;;;22.00;44.10;;;;;;5053636;28;20200;-79
2023/06/15 02:47:30;;;;;;;3.78;3.47;;;21.90;43.90;;;;;;5054261;28;20294;-79
2023/06/15 02:49:59;;;;;;;3.83;3.53;;;22.00;44.00;;;;;;5053160;28;20658;-79
2023/06/15 02:52:30;;;;;;;4.15;3.80;;;21.90;43.90;;;;;;5037184;28;20211;-79
2023/06/15 02:54:57;;;;;;;4.50;3.60;;;21.90;44.00;;;;;;5053008;28;20230;-79
2023/06/15 02:57:25;;;;;;;4.00;3.60;;;21.90;44.10;;;;;;5053016;28;20195;-78
2023/06/15 03:00:13;;;;;;;4.00;3.60;;;21.90;44.00;;;;;;5054164;28;20255;-78
2023/06/15 03:02:47;;;;;;;3.70;3.40;;;21.90;44.10;;;;;;5053190;28;20689;-78
2023/06/15 03:05:14;;;;;;;4.00;3.60;;;21.90;44.50;;;;;;5053154;28;20282;-78
2023/06/15 03:07:51;;;;;;;4.43;4.10;;;21.90;43.90;;;;;;5052774;28;20221;-78
2023/06/15 03:10:27;;;;;;;4.00;3.50;;;21.80;43.80;;;;;;5052487;28;20199;-78
2023/06/15 03:12:54;;;;;;;5.32;3.20;;;21.90;43.90;;;;;;5036189;28;20202;-78
2023/06/15 03:15:22;;;;;;;3.85;3.45;;;21.80;43.90;;;;;;5052659;28;20282;-77
2023/06/15 03:17:50;;;;;;;4.22;3.80;;;21.80;43.80;;;;;;5052990;28;20218;-77
2023/06/15 03:20:21;;;;;;;5.00;3.97;;;21.90;43.90;;;;;;5052325;28;20200;-78
2023/06/15 03:22:49;;;;;;;4.20;3.80;;;21.90;44.10;;;;;;5052186;28;20216;-78
2023/06/15 03:25:17;;;;;;;4.13;3.67;;;21.90;44.00;;;;;;5052250;28;20223;-78
2023/06/15 03:27:48;;;;;;;4.32;3.95;;;21.90;44.00;;;;;;5052282;28;20199;-78
2023/06/15 03:30:17;;;;;;;4.45;4.05;;;21.90;43.80;;;;;;5052046;28;20283;-78
2023/06/15 03:32:46;;;;;;;4.40;3.88;;;22.00;43.70;;;;;;5038668;28;20569;-78
2023/06/15 03:35:14;;;;;;;4.40;4.00;;;22.00;43.70;;;;;;5055860;28;20658;-78
2023/06/15 03:37:43;;;;;;;4.00;3.70;;;22.00;43.60;;;;;;5055811;28;20194;-78
2023/06/15 03:40:12;;;;;;;3.92;3.60;;;22.00;43.60;;;;;;5055572;28;20734;-78
2023/06/15 03:42:40;;;;;;;3.80;3.50;;;22.10;43.60;;;;;;5056565;28;20199;-78
2023/06/15 03:45:08;;;;;;;4.20;3.80;;;22.10;43.40;;;;;;5055764;28;20199;-78
2023/06/15 03:47:35;;;;;;;4.20;3.80;;;22.10;43.40;;;;;;5055709;28;20270;-78
2023/06/15 03:50:03;;;;;;;4.60;3.75;;;22.10;43.50;;;;;;5056730;28;20192;-78
2023/06/15 03:52:32;;;;;;;3.90;3.60;;;22.10;43.40;;;;;;5055536;28;20211;-78
2023/06/15 03:55:00;;;;;;;4.82;3.55;;;22.10;43.40;;;;;;5055513;28;20196;-78
2023/06/15 03:57:28;;;;;;;4.47;3.60;;;22.10;43.40;;;;;;5055409;28;20242;-78
2023/06/15 03:59:56;;;;;;;4.10;3.78;;;22.10;43.40;;;;;;5057152;28;20199;-79
2023/06/15 04:02:24;;;;;;;3.95;3.65;;;22.10;43.40;;;;;;5041643;28;20292;-80
2023/06/15 04:04:55;;;;;;;3.85;3.55;;;22.10;43.40;;;;;;5059201;28;20294;-80
2023/06/15 04:07:22;;;;;;;4.35;3.45;;;22.10;43.40;;;;;;5059445;28;20218;-79
2023/06/15 04:09:50;;;;;;;4.32;3.95;;;22.10;43.50;;;;;;5059645;28;20290;-80
2023/06/15 04:12:18;;;;;;;4.10;3.80;;;22.10;43.40;;;;;;5059384;28;20246;-80
2023/06/15 04:14:47;;;;;;;3.78;3.47;;;22.10;43.30;;;;;;5058864;28;20670;-80
2023/06/15 04:17:15;;;;;;;5.35;4.00;;;22.10;43.40;;;;;;5057251;28;20294;-79
2023/06/15 04:19:42;;;;;;;4.05;3.63;;;22.10;43.40;;;;;;5058062;28;20731;-80
2023/06/15 04:22:09;;;;;;;4.45;3.80;;;22.10;43.60;;;;;;5060802;28;20276;-79
2023/06/15 04:24:38;;;;;;;3.85;3.55;;;22.10;43.50;;;;;;5069855;28;20222;-78
2023/06/15 04:27:08;;;;;;;4.47;3.80;;;22.10;43.60;;;;;;5079242;28;20188;-79
2023/06/15 04:29:35;;;;;;;4.50;3.70;;;22.20;43.60;;;;;;5071167;28;20630;-80
2023/06/15 04:32:06;;;;;;;3.67;3.38;;;22.20;43.70;;;;;;5076991;28;20207;-79
2023/06/15 04:34:34;;;;;;;3.80;3.50;;;22.20;43.70;;;;;;5078857;28;20188;-79
2023/06/15 04:37:06;;;;;;;4.25;3.85;;;22.20;43.70;;;;;;5073492;28;20534;-79
2023/06/15 04:39:35;;;;;;;3.80;3.50;;;22.20;43.70;;;;;;5073200;28;20543;-80
2023/06/15 04:42:05;;;;;;;4.13;3.72;;;22.20;43.80;;;;;;5073023;28;20219;-80
2023/06/15 04:44:32;;;;;;;4.07;3.67;;;22.30;44.00;;;;;;5056322;28;20290;-80
2023/06/15 04:47:00;;;;;;;3.90;3.60;;;22.40;43.90;;;;;;5067487;28;20211;-81
2023/06/15 04:49:30;;;;;;;4.03;3.63;;;22.50;43.80;;;;;;5044283;28;20420;-80
2023/06/15 04:51:58;;;;;;;3.60;3.30;;;22.60;43.60;;;;;;5078030;28;20207;-79
2023/06/15 04:54:25;;;;;;;3.65;3.35;;;22.80;43.50;;;;;;5079077;28;20183;-80
2023/06/15 04:56:52;;;;;;;3.95;3.65;;;23.00;43.50;;;;;;5048504;28;20646;-80
2023/06/15 04:59:20;;;;;;;3.95;3.60;;;23.10;43.10;;;;;;5056180;28;20199;-81
2023/06/15 05:01:47;;;;;;;4.18;3.88;;;23.30;43.00;;;;;;5059977;28;20219;-80
2023/06/15 05:04:42;;;;;;;3.95;3.50;;;23.40;42.70;;;;;;5059105;28;20207;-81
2023/06/15 05:07:11;;;;;;;3.72;3.42;;;23.50;42.50;;;;;;5058606;28;20548;-80
2023/06/15 05:09:43;;;;;;;4.80;3.85;;;23.60;42.30;;;;;;5057307;28;20269;-82
2023/06/15 05:12:15;;;;;;;4.25;3.85;;;23.70;42.20;;;;;;5055357;28;20700;-79
2023/06/15 05:14:42;;;;;;;4.68;3.90;;;23.80;42.00;;;;;;5038746;28;20545;-79
2023/06/15 05:17:09;;;;;;;6.15;5.18;;;23.70;43.50;;;;;;5054803;28;20195;-78
2023/06/15 05:19:37;;;;;;;5.95;4.65;;;23.50;44.10;;;;;;5056315;28;20223;-78
2023/06/15 05:22:06;;;;;;;5.10;4.60;;;23.30;44.50;;;;;;5038311;28;20211;-78
2023/06/15 05:24:36;;;;;;;5.80;4.35;;;23.10;45.00;;;;;;5054496;28;20267;-78
2023/06/15 05:27:04;;;;;;;5.53;4.78;;;23.10;44.80;;;;;;5054530;28;20195;-79
2023/06/15 05:29:32;;;;;;;4.85;4.45;;;23.20;44.80;;;;;;5055183;28;20688;-79
2023/06/15 05:32:01;;;;;;;5.63;4.60;;;23.30;44.60;;;;;;5054217;28;20238;-79
2023/06/15 05:34:30;;;;;;;5.10;4.60;;;23.40;44.30;;;;;;5055021;28;20617;-79
2023/06/15 05:36:57;;;;;;;5.00;4.53;;;23.50;44.20;;;;;;5056123;28;20195;-80
2023/06/15 05:39:32;;;;;;;5.65;4.50;;;23.60;44.10;;;;;;5057685;28;20241;-79
2023/06/15 05:42:00;;;;;;;6.88;4.88;;;23.70;44.00;;;;;;5053764;28;20261;-79
2023/06/15 05:44:28;;;;;;;5.57;5.05;;;23.80;43.80;;;;;;5054547;28;20281;-79
2023/06/15 05:46:58;;;;;;;5.18;4.68;;;23.90;43.80;;;;;;5054764;28;20604;-79
2023/06/15 05:49:25;;;;;;;7.57;5.82;;;24.00;43.80;;;;;;5056142;28;20199;-80
2023/06/15 05:51:53;;;;;;;7.38;5.63;;;24.00;43.30;;;;;;5054568;28;20243;-79
2023/06/15 05:54:23;;;;;;;5.57;5.05;;;24.10;43.40;;;;;;5038678;28;20245;-79
2023/06/15 05:56:52;;;;;;;6.03;4.82;;;24.10;43.00;;;;;;5055451;28;20191;-80
2023/06/15 05:59:20;;;;;;;6.03;5.20;;;24.20;42.60;;;;;;5054669;28;20257;-79
2023/06/15 06:01:47;;;;;;;6.70;5.35;;;24.30;42.40;;;;;;5054413;28;20618;-80
2023/06/15 06:04:14;;;;;;;6.30;5.00;;;24.40;42.20;;;;;;5056162;28;20215;-79
2023/06/15 06:06:42;;;;;;;5.70;5.10;;;24.50;42.00;;;;;;5056063;28;20195;-79
2023/06/15 06:09:11;;;;;;;5.18;4.43;;;24.60;41.90;;;;;;5054966;28;20199;-78
2023/06/15 06:11:38;;;;;;;5.82;5.00;;;24.70;41.60;;;;;;5052781;28;20273;-78
2023/06/15 06:14:07;;;;;;;5.43;4.85;;;24.80;41.40;;;;;;5052778;28;20705;-78
2023/06/15 06:16:34;;;;;;;6.63;4.63;;;24.90;41.20;;;;;;5053152;28;20201;-79
2023/06/15 06:19:01;;;;;;;6.13;4.78;;;25.00;40.90;;;;;;5052582;28;20559;-78
2023/06/15 06:21:31;;;;;;;5.82;4.70;;;25.10;40.70;;;;;;5052603;28;20656;-79
2023/06/15 06:23:58;;;;;;;6.43;4.97;;;25.20;40.50;;;;;;5052936;28;20219;-79
2023/06/15 06:26:25;;;;;;;8.70;4.70;;;25.40;40.30;;;;;;5052945;28;20199;-79
2023/06/15 06:28:53;;;;;;;4.63;4.13;;;25.40;40.00;;;;;;5052510;28;20191;-79
2023/06/15 06:31:21;;;;;;;5.05;4.45;;;25.60;39.80;;;;;;5052447;28;20214;-79
2023/06/15 06:33:49;;;;;;;5.35;4.38;;;25.60;39.50;;;;;;5052591;28;20195;-79
2023/06/15 06:36:15;;;;;;;5.13;4.60;;;25.80;39.30;;;;;;5052738;28;20195;-79
2023/06/15 06:38:43;;;;;;;4.88;4.38;;;25.80;39.00;;;;;;5053057;28;20264;-77
2023/06/15 06:41:10;;;;;;;5.05;4.53;;;25.90;38.90;;;;;;5052349;28;20728;-77
2023/06/15 06:43:38;;;;;;;6.38;4.82;;;26.00;38.80;;;;;;5053575;28;20237;-78
2023/06/15 06:46:05;;;;;;;6.53;4.72;;;26.10;38.70;;;;;;5057649;28;20725;-78
2023/06/15 06:48:34;;;;;;;5.63;4.18;;;26.20;38.50;;;;;;5053480;28;20188;-77
2023/06/15 06:51:01;;;;;;;5.45;4.20;;;26.20;38.30;;;;;;5052325;28;20215;-77
2023/06/15 06:53:28;;;;;;;5.22;4.40;;;26.30;38.20;;;;;;5052772;28;20197;-77
2023/06/15 06:55:55;;;;;;;5.10;4.60;;;26.30;38.00;;;;;;5036132;28;20231;-77
2023/06/15 06:58:22;;;;;;;5.38;4.68;;;26.40;37.90;;;;;;5052305;28;20191;-77
2023/06/15 07:00:50;;;;;;;5.18;4.38;;;26.50;37.80;;;;;;5035504;28;20215;-76
2023/06/15 07:03:17;;;;;;;4.30;3.80;;;26.50;37.70;;;;;;5052118;28;20225;-76
2023/06/15 07:05:47;;;;;;;5.22;4.50;;;26.60;37.60;;;;;;5052304;28;20234;-77
2023/06/15 07:08:14;;;;;;;5.13;3.88;;;26.60;38.00;;;;;;5055787;28;20199;-79
2023/06/15 07:10:41;;;;;;;5.18;4.10;;;26.70;37.30;;;;;;5056963;28;20219;-79
2023/06/15 07:13:08;;;;;;;5.70;4.10;;;26.70;37.10;;;;;;5056035;28;20252;-78
2023/06/15 07:15:35;;;;;;;5.13;4.00;;;26.80;37.10;;;;;;5057572;28;20657;-78
2023/06/15 07:18:02;;;;;;;5.70;4.32;;;26.80;37.10;;;;;;5056860;28;20227;-78
2023/06/15 07:20:29;;;;;;;4.95;4.30;;;26.80;36.90;;;;;;5057639;28;20199;-78
2023/06/15 07:22:58;;;;;;;4.40;4.00;;;26.90;36.80;;;;;;5057031;28;20206;-78
2023/06/15 07:25:25;;;;;;;5.18;4.00;;;27.00;36.70;;;;;;5055818;28;20685;-78
2023/06/15 07:27:52;;;;;;;4.55;4.00;;;27.00;36.60;;;;;;5055824;28;20198;-78
2023/06/15 07:30:19;;;;;;;4.72;4.00;;;27.10;36.60;;;;;;5055475;28;20234;-78
2023/06/15 07:32:46;;;;;;;4.85;4.35;;;27.10;36.40;;;;;;5055613;28;20203;-78
2023/06/15 07:35:14;;;;;;;4.00;3.60;;;27.20;36.40;;;;;;5056217;28;20199;-78
2023/06/15 07:37:40;;;;;;;4.55;3.80;;;27.20;36.30;;;;;;5039339;28;20199;-78
2023/06/15 07:40:11;;;;;;;3.97;3.63;;;27.20;36.20;;;;;;5039371;28;20252;-78
2023/06/15 07:42:38;;;;;;;5.40;4.00;;;27.20;36.10;;;;;;5056562;28;20211;-78
2023/06/15 07:45:06;;;;;;;5.10;4.22;;;27.30;36.10;;;;;;5055552;28;20214;-79
2023/06/15 07:47:34;;;;;;;5.30;3.78;;;27.30;36.00;;;;;;5055427;28;20205;-77
2023/06/15 07:50:01;;;;;;;5.65;3.88;;;27.30;35.90;;;;;;5055896;28;20200;-77
2023/06/15 07:52:28;;;;;;;4.95;3.90;;;27.40;35.90;;;;;;5056535;28;20226;-77
2023/06/15 07:54:55;;;;;;;5.15;4.03;;;27.40;35.90;;;;;;5055524;28;20283;-77
2023/06/15 07:57:25;;;;;;;4.70;4.07;;;27.50;35.90;;;;;;5055276;28;20207;-76
2023/06/15 07:59:52;;;;;;;4.60;4.00;;;27.50;35.80;;;;;;5055447;28;20265;-77
2023/06/15 08:02:20;;;;;;;7.43;4.20;;;27.50;35.80;;;;;;5055016;28;20727;-77
2023/06/15 08:04:47;;;;;;;5.60;4.35;;;27.50;35.70;;;;;;5054902;28;20215;-77
2023/06/15 08:07:14;;;;;;;4.80;4.30;;;27.50;35.70;;;;;;5056591;28;20189;-77
2023/06/15 08:09:41;;;;;;;4.88;4.25;;;27.60;35.70;;;;;;5054998;28;20191;-77
2023/06/15 08:12:09;;;;;;;7.53;4.10;;;27.60;35.60;;;;;;5054846;28;20279;-77
2023/06/15 08:14:38;;;;;;;4.40;4.00;;;27.60;35.60;;;;;;5054888;28;20194;-77
2023/06/15 08:17:06;;;;;;;4.40;3.90;;;27.60;35.50;;;;;;5038938;28;20194;-77
2023/06/15 08:19:33;;;;;;;5.28;3.92;;;27.60;35.50;;;;;;5055076;28;20205;-77
2023/06/15 08:22:00;;;;;;;4.78;4.05;;;27.70;35.60;;;;;;5054822;28;20241;-77
2023/06/15 08:24:27;;;;;;;4.25;3.70;;;27.70;35.50;;;;;;5054614;28;20223;-77
2023/06/15 08:26:54;;;;;;;4.25;3.58;;;27.80;35.40;;;;;;5054911;28;20202;-76
2023/06/15 08:29:21;;;;;;;4.28;3.88;;;27.80;35.60;;;;;;5054680;28;20187;-76
2023/06/15 08:31:49;;;;;;;4.68;3.50;;;27.80;35.70;;;;;;5055936;28;20289;-76
2023/06/15 08:34:16;;;;;;;5.82;4.10;;;27.80;35.80;;;;;;5054517;28;20198;-76
2023/06/15 08:36:44;;;;;;;4.38;3.90;;;27.90;36.10;;;;;;5039216;28;20179;-76
2023/06/15 08:39:11;;;;;;;4.72;3.72;;;27.80;36.20;;;;;;5055249;28;20640;-77
2023/06/15 08:41:38;;;;;;;5.05;4.22;;;27.90;36.30;;;;;;5056371;28;20241;-77
2023/06/15 08:44:06;;;;;;;4.85;3.88;;;27.90;36.30;;;;;;5055972;28;20215;-77
2023/06/15 08:46:33;;;;;;;4.95;3.78;;;27.90;36.20;;;;;;5055094;28;20217;-77
2023/06/15 08:49:02;;;;;;;6.35;4.13;;;27.90;36.20;;;;;;5039652;28;20199;-77
2023/06/15 08:51:29;;;;;;;5.57;4.00;;;27.90;36.20;;;;;;5057021;28;20213;-77
2023/06/15 08:53:57;;;;;;;6.60;3.97;;;28.00;36.10;;;;;;5056281;28;20193;-77
2023/06/15 08:56:24;;;;;;;4.53;4.13;;;28.00;36.10;;;;;;5054494;28;20201;-77
2023/06/15 08:58:52;;;;;;;4.25;3.78;;;28.00;36.10;;;;;;5055600;28;20665;-77
2023/06/15 09:01:21;;;;;;;4.18;3.78;;;28.00;36.00;;;;;;5054018;28;20210;-78
2023/06/15 09:03:49;;;;;;;4.40;3.70;;;28.00;36.60;;;;;;5054038;28;20224;-78
2023/06/15 09:06:18;;;;;;;5.38;3.78;;;28.00;35.90;;;;;;5053986;28;20199;-77
2023/06/15 09:08:46;;;;;;;5.00;4.05;;;28.00;35.90;;;;;;5054346;28;20290;-77
2023/06/15 09:11:13;;;;;;;4.80;3.83;;;28.00;35.80;;;;;;5054397;28;20300;-77
2023/06/15 09:13:41;;;;;;;4.88;3.60;;;28.00;35.70;;;;;;5053783;28;20658;-77
2023/06/15 09:16:09;;;;;;;4.20;3.63;;;28.10;35.80;;;;;;5053991;28;20286;-78
2023/06/15 09:18:43;;;;;;;4.30;3.90;;;28.10;35.80;;;;;;5054202;28;20194;-79
2023/06/15 09:21:12;;;;;;;4.00;3.58;;;28.10;35.70;;;;;;5054962;28;20290;-78
2023/06/15 09:23:43;;;;;;;4.10;3.70;;;28.10;35.60;;;;;;5055038;28;20191;-78
2023/06/15 09:26:10;;;;;;;4.72;3.70;;;28.10;35.60;;;;;;5054655;28;20194;-78
2023/06/15 09:28:44;;;;;;;5.47;3.75;;;28.10;35.50;;;;;;5054756;28;20206;-78
2023/06/15 09:31:11;;;;;;;4.03;3.63;;;28.10;35.60;;;;;;5053418;28;20298;-78
2023/06/15 09:33:39;;;;;;;4.82;4.00;;;28.10;35.50;;;;;;5053779;28;20195;-79
2023/06/15 09:36:07;;;;;;;3.88;3.40;;;28.10;35.50;;;;;;5053711;28;20194;-78
2023/06/15 09:38:41;;;;;;;4.22;3.80;;;28.10;35.50;;;;;;5054307;28;20229;-78
2023/06/15 09:41:10;;;;;;;5.03;3.78;;;28.10;35.50;;;;;;5053667;28;20297;-78
2023/06/15 09:43:39;;;;;;;4.18;3.78;;;28.10;35.50;;;;;;5053768;28;20195;-77
2023/06/15 09:46:10;;;;;;;4.82;3.75;;;28.10;35.50;;;;;;5053662;28;20230;-77
2023/06/15 09:48:37;;;;;;;4.20;3.50;;;28.10;35.60;;;;;;5053808;28;20244;-77
2023/06/15 09:51:05;;;;;;;4.03;3.63;;;28.10;35.50;;;;;;5054464;28;20233;-77
2023/06/15 09:53:32;;;;;;;3.97;3.50;;;28.10;35.50;;;;;;5054347;28;20202;-77
2023/06/15 09:55:59;;;;;;;4.32;3.78;;;28.10;35.50;;;;;;5053513;28;20205;-77
2023/06/15 09:58:28;;;;;;;3.95;3.45;;;28.10;35.50;;;;;;5054675;28;20195;-78
2023/06/15 10:00:57;;;;;;;3.90;3.50;;;28.10;35.50;;;;;;5055220;28;20681;-79
2023/06/15 10:03:25;;;;;;;3.95;3.55;;;28.10;35.60;;;;;;5053566;28;20202;-79
2023/06/15 10:05:54;;;;;;;3.97;3.58;;;28.10;35.60;;;;;;5053357;28;20229;-78
2023/06/15 10:08:23;;;;;;;4.28;3.80;;;28.00;35.70;;;;;;5053107;28;20202;-78
2023/06/15 10:10:51;;;;;;;3.97;3.65;;;27.90;35.80;;;;;;5053021;28;20218;-78
2023/06/15 10:13:22;;;;;;;3.40;3.10;;;27.80;36.10;;;;;;5053293;28;20191;-78
2023/06/15 10:15:52;;;;;;;4.00;3.70;;;27.70;36.30;;;;;;5053033;28;20245;-78
2023/06/15 10:18:20;;;;;;;4.40;3.35;;;27.60;36.40;;;;;;5037437;28;20194;-78
2023/06/15 10:20:48;;;;;;;3.67;3.30;;;27.60;36.50;;;;;;5053294;28;20225;-78
2023/06/15 10:23:15;;;;;;;3.83;3.53;;;27.60;36.50;;;;;;5052999;28;20294;-78
2023/06/15 10:25:43;;;;;;;3.88;3.47;;;27.50;36.40;;;;;;5053507;28;20662;-78
2023/06/15 10:28:11;;;;;;;4.00;3.35;;;27.50;36.40;;;;;;5042277;28;20195;-78
2023/06/15 10:30:42;;;;;;;3.97;3.40;;;27.50;36.50;;;;;;5059111;28;20218;-78
2023/06/15 10:33:14;;;;;;;3.78;3.38;;;27.50;36.50;;;;;;5052924;28;20186;-78
2023/06/15 10:35:46;;;;;;;3.95;3.42;;;27.50;36.50;;;;;;5052828;28;20202;-78
2023/06/15 10:38:19;;;;;;;4.93;3.45;;;27.50;36.70;;;;;;5052936;28;20293;-78
2023/06/15 10:40:48;;;;;;;4.05;3.50;;;27.50;36.60;;;;;;5052634;28;20677;-78
2023/06/15 10:43:19;;;;;;;3.75;3.40;;;27.40;36.80;;;;;;5057163;28;20222;-78
2023/06/15 10:45:46;;;;;;;3.90;3.60;;;27.30;36.80;;;;;;5056931;28;20218;-79
2023/06/15 10:48:22;;;;;;;3.65;3.25;;;27.20;37.00;;;;;;5057236;28;20183;-79
2023/06/15 10:50:51;;;;;;;3.42;3.13;;;27.20;37.10;;;;;;5057201;28;20214;-79
2023/06/15 10:53:23;;;;;;;4.88;3.30;;;27.20;37.30;;;;;;5057186;28;20199;-79
2023/06/15 10:55:53;;;;;;;3.53;3.15;;;27.10;37.20;;;;;;5058832;28;20190;-78
2023/06/15 10:58:20;;;;;;;3.60;3.30;;;27.10;37.30;;;;;;5059005;28;20229;-79
2023/06/15 11:01:05;;;;;;;4.10;3.40;;;27.10;37.40;;;;;;5061089;28;20222;-79
2023/06/15 11:03:34;;;;;;;3.70;3.40;;;27.10;37.40;;;;;;5061258;28;20209;-78
2023/06/15 11:06:06;;;;;;;3.80;3.42;;;27.10;37.50;;;;;;5061040;28;20220;-78
2023/06/15 11:08:44;;;;;;;3.35;3.05;;;27.00;37.50;;;;;;5059305;28;20209;-79
2023/06/15 11:11:12;;;;;;;3.95;3.55;;;27.00;37.60;;;;;;5058732;28;20226;-79
2023/06/15 11:14:04;;;;;;;3.50;3.20;;;27.00;37.60;;;;;;5059011;28;20219;-78
2023/06/15 11:16:32;;;;;;;3.72;3.30;;;27.00;37.80;;;;;;5059233;28;20187;-78
2023/06/15 11:19:23;;;;;;;3.53;3.22;;;26.90;37.70;;;;;;5057556;28;20183;-79
2023/06/15 11:21:56;;;;;;;3.75;3.38;;;26.90;38.50;;;;;;5057042;28;20280;-78
2023/06/15 11:24:24;;;;;;;3.38;3.08;;;26.90;37.80;;;;;;5056532;28;20417;-78
2023/06/15 11:26:52;;;;;;;3.72;3.40;;;26.90;37.90;;;;;;5057318;28;20606;-78
2023/06/15 11:29:22;;;;;;;3.85;3.30;;;26.80;38.00;;;;;;5056556;28;20205;-79
2023/06/15 11:31:49;;;;;;;3.72;3.40;;;26.90;37.90;;;;;;5056532;28;20214;-79
2023/06/15 11:34:16;;;;;;;3.75;3.40;;;26.90;38.00;;;;;;5055794;28;20201;-79
2023/06/15 11:36:45;;;;;;;3.35;3.05;;;26.90;37.90;;;;;;5057218;28;20187;-79
2023/06/15 11:39:20;;;;;;;3.50;3.20;;;26.90;37.90;;;;;;5056960;28;20198;-79
2023/06/15 11:41:49;;;;;;;3.60;3.25;;;26.90;37.90;;;;;;5055325;28;20595;-77
2023/06/15 11:44:16;;;;;;;3.53;3.22;;;26.90;37.90;;;;;;5056617;28;20603;-77
2023/06/15 11:46:43;;;;;;;3.35;3.05;;;26.90;37.90;;;;;;5038737;28;20207;-77
2023/06/15 11:49:11;;;;;;;3.58;3.28;;;26.90;37.90;;;;;;5055509;28;20570;-77
2023/06/15 11:51:46;;;;;;;3.42;3.13;;;26.90;38.00;;;;;;5055165;28;20320;-77
2023/06/15 11:54:16;;;;;;;3.50;3.20;;;26.90;38.00;;;;;;5055421;28;20248;-77
2023/06/15 11:56:47;;;;;;;3.45;3.15;;;26.90;38.00;;;;;;5055204;28;20292;-78
2023/06/15 11:59:15;;;;;;;3.53;3.22;;;26.90;37.80;;;;;;5054986;28;20210;-78
2023/06/15 12:01:43;;;;;;;3.08;2.88;;;26.90;37.90;;;;;;5054985;28;20242;-78
2023/06/15 12:04:12;;;;;;;3.40;3.10;;;26.90;38.00;;;;;;5055334;28;20339;-78
2023/06/15 12:06:40;;;;;;;3.53;3.20;;;26.90;38.00;;;;;;5055091;28;20216;-78
2023/06/15 12:09:07;;;;;;;3.33;3.13;;;26.80;38.00;;;;;;5055307;28;20728;-78
2023/06/15 12:11:36;;;;;;;3.42;3.13;;;26.80;38.00;;;;;;5054912;28;20219;-78
2023/06/15 12:14:06;;;;;;;3.70;3.22;;;26.90;38.10;;;;;;5056501;28;20252;-78
2023/06/15 12:16:33;;;;;;;3.30;3.10;;;26.80;38.00;;;;;;5055472;28;20194;-78
2023/06/15 12:19:01;;;;;;;3.00;2.80;;;26.80;38.10;;;;;;5056977;28;20580;-78
2023/06/15 12:21:32;;;;;;;3.40;3.10;;;26.80;38.20;;;;;;5058569;28;20221;-78
2023/06/15 12:24:00;;;;;;;3.47;3.17;;;26.80;38.20;;;;;;5054818;28;20261;-78
2023/06/15 12:26:32;;;;;;;2.95;2.75;;;26.80;38.20;;;;;;5054874;28;20261;-78
2023/06/15 12:29:02;;;;;;;3.00;2.80;;;26.80;38.20;;;;;;5058753;28;20195;-78
2023/06/15 12:31:33;;;;;;;3.92;3.10;;;26.80;38.30;;;;;;5060239;28;20305;-78
2023/06/15 12:34:06;;;;;;;3.20;2.95;;;26.70;38.30;;;;;;5061037;28;20203;-77
2023/06/15 12:36:34;;;;;;;3.38;3.08;;;26.80;38.40;;;;;;5060962;28;20195;-78
2023/06/15 12:39:05;;;;;;;3.33;3.03;;;26.70;38.30;;;;;;5055973;28;20274;-78
2023/06/15 12:41:32;;;;;;;3.65;3.28;;;26.70;38.30;;;;;;5038008;28;20223;-78
2023/06/15 12:44:01;;;;;;;3.30;3.00;;;26.70;38.40;;;;;;5055437;28;20653;-78
2023/06/15 12:46:28;;;;;;;3.53;2.90;;;26.70;38.40;;;;;;5054092;28;20580;-78
2023/06/15 12:48:57;;;;;;;3.38;3.10;;;26.70;38.40;;;;;;5055132;28;20257;-78
2023/06/15 12:51:24;;;;;;;2.95;2.75;;;26.70;38.50;;;;;;5054228;28;20219;-78
2023/06/15 12:53:51;;;;;;;3.13;2.92;;;26.70;38.50;;;;;;5037848;28;20245;-78
2023/06/15 12:56:18;;;;;;;3.22;2.90;;;26.70;38.50;;;;;;5054132;28;20256;-78